Time;durP1;ratioP1;P1;durP2;ratioP2;P2;SDS_P1;SDS_P2;PMS_P1;PMS_P2;Temp;Humidity;BMP_temperature;BMP_pressure;BME280_temperature;BME280_humidity;BME280_pressure;Samples;Min_cycle;Max_cycle;Signal;HPM_P1;HPM_P2
2024/02/02 00:02:15;;;;;;;14.98;0.52;;;5.80;99.90;;;;;;4959484;29;20015;-78
2024/02/02 00:04:41;;;;;;;13.95;1.88;;;5.80;99.90;;;;;;4959402;29;20023;-78
2024/02/02 00:07:07;;;;;;;15.63;1.48;;;5.80;99.90;;;;;;4958895;29;20031;-78
2024/02/02 00:09:32;;;;;;;18.08;1.77;;;5.80;99.90;;;;;;4960084;29;20027;-78
2024/02/02 00:11:58;;;;;;;11.98;0.88;;;5.80;99.90;;;;;;4962220;29;20378;-78
2024/02/02 00:14:27;;;;;;;17.90;1.00;;;5.80;99.90;;;;;;4959785;29;20442;-78
2024/02/02 00:16:52;;;;;;;9.35;1.08;;;5.80;99.90;;;;;;4960444;29;20027;-79
2024/02/02 00:19:18;;;;;;;9.38;0.68;;;5.80;99.90;;;;;;4960201;29;20054;-78
2024/02/02 00:21:44;;;;;;;16.92;1.58;;;5.80;99.90;;;;;;4959853;29;20086;-78
2024/02/02 00:24:09;;;;;;;12.05;1.70;;;5.80;99.90;;;;;;4958329;29;20035;-77
2024/02/02 00:26:35;;;;;;;14.80;1.05;;;5.90;99.90;;;;;;4958165;29;20023;-78
2024/02/02 00:29:01;;;;;;;13.90;1.65;;;5.90;99.90;;;;;;4958650;29;20065;-78
2024/02/02 00:31:27;;;;;;;11.10;0.93;;;5.90;99.90;;;;;;4959052;29;20395;-78
2024/02/02 00:33:52;;;;;;;12.70;0.98;;;5.90;99.90;;;;;;4959472;29;20027;-78
2024/02/02 00:36:18;;;;;;;12.05;1.58;;;6.00;99.90;;;;;;4958699;29;20049;-78
2024/02/02 00:38:43;;;;;;;19.75;1.80;;;6.00;99.90;;;;;;4959441;29;20015;-78
2024/02/02 00:41:09;;;;;;;16.90;1.88;;;5.90;99.90;;;;;;4959141;29;20028;-78
2024/02/02 00:43:35;;;;;;;17.83;1.83;;;6.00;99.90;;;;;;4957613;29;20094;-78
2024/02/02 00:46:01;;;;;;;9.50;1.50;;;5.90;99.90;;;;;;4959546;29;20522;-76
2024/02/02 00:48:27;;;;;;;11.82;1.48;;;6.00;99.90;;;;;;4959421;28;20035;-76
2024/02/02 00:50:53;;;;;;;11.57;1.58;;;6.00;99.90;;;;;;4957478;29;20082;-77
2024/02/02 00:53:22;;;;;;;17.60;1.25;;;6.00;99.90;;;;;;4958165;29;20011;-76
2024/02/02 00:55:47;;;;;;;25.92;2.47;;;6.00;99.90;;;;;;4958439;29;20026;-77
2024/02/02 00:58:13;;;;;;;22.10;2.00;;;6.00;99.90;;;;;;4958165;29;20027;-77
2024/02/02 01:00:38;;;;;;;16.10;2.58;;;6.00;99.90;;;;;;4958668;29;20138;-77
2024/02/02 01:03:05;;;;;;;17.85;2.47;;;6.00;99.90;;;;;;4957897;29;20027;-77
2024/02/02 01:05:32;;;;;;;12.65;1.45;;;6.00;99.90;;;;;;4958881;29;20035;-77
2024/02/02 01:07:58;;;;;;;12.45;1.73;;;5.90;99.90;;;;;;4958173;29;20023;-77
2024/02/02 01:10:23;;;;;;;23.83;2.08;;;5.90;99.90;;;;;;4957860;29;20030;-77
2024/02/02 01:12:49;;;;;;;17.27;2.00;;;6.00;99.90;;;;;;4958285;29;20079;-76
2024/02/02 01:15:16;;;;;;;16.35;3.00;;;6.00;99.90;;;;;;4958336;29;20035;-76
2024/02/02 01:17:45;;;;;;;9.40;1.40;;;6.00;99.90;;;;;;4959504;29;20087;-76
2024/02/02 01:20:13;;;;;;;14.07;1.58;;;6.00;99.90;;;;;;4957037;29;20032;-76
2024/02/02 01:22:39;;;;;;;16.25;2.58;;;6.10;99.90;;;;;;4958318;29;20028;-77
2024/02/02 01:25:06;;;;;;;18.23;2.17;;;6.00;99.90;;;;;;4958133;29;20046;-77
2024/02/02 01:27:33;;;;;;;16.67;1.73;;;5.90;99.90;;;;;;4956996;29;20027;-77
2024/02/02 01:29:58;;;;;;;18.63;2.15;;;6.00;99.90;;;;;;4957811;29;20082;-77
2024/02/02 01:32:24;;;;;;;11.27;1.67;;;5.90;99.90;;;;;;4958360;29;20083;-77
2024/02/02 01:34:51;;;;;;;17.15;1.90;;;6.00;99.90;;;;;;4955828;29;20023;-77
2024/02/02 01:37:17;;;;;;;11.80;1.50;;;5.90;99.90;;;;;;4958861;29;20015;-77
2024/02/02 01:39:43;;;;;;;13.02;1.70;;;5.90;99.90;;;;;;4956209;29;20038;-77
2024/02/02 01:42:08;;;;;;;17.60;1.80;;;6.00;99.90;;;;;;4956239;29;20082;-77
2024/02/02 01:44:34;;;;;;;19.17;2.13;;;5.90;99.90;;;;;;4957969;29;20443;-78
2024/02/02 01:47:00;;;;;;;21.95;2.78;;;5.90;99.90;;;;;;4957143;29;20027;-77
2024/02/02 01:49:25;;;;;;;15.05;2.70;;;5.90;99.90;;;;;;4957519;29;20045;-78
2024/02/02 01:51:51;;;;;;;12.32;1.05;;;5.90;99.90;;;;;;4956685;29;20059;-78
2024/02/02 01:54:17;;;;;;;14.60;1.77;;;5.90;99.90;;;;;;4956345;29;20094;-77
2024/02/02 01:56:43;;;;;;;11.60;2.03;;;6.00;99.90;;;;;;4958532;29;20066;-77
2024/02/02 01:59:08;;;;;;;16.88;2.55;;;6.00;99.90;;;;;;4957920;29;20128;-77
2024/02/02 02:01:35;;;;;;;18.52;1.80;;;6.00;99.90;;;;;;4960788;28;20023;-77
2024/02/02 02:04:01;;;;;;;11.02;1.95;;;6.00;99.90;;;;;;4960285;29;20035;-77
2024/02/02 02:06:26;;;;;;;17.23;2.63;;;6.00;99.90;;;;;;4962275;29;20543;-77
2024/02/02 02:08:52;;;;;;;11.73;2.03;;;6.00;99.90;;;;;;4961898;29;20024;-77
2024/02/02 02:11:18;;;;;;;10.50;2.60;;;6.00;99.90;;;;;;4960375;29;20028;-78
2024/02/02 02:13:43;;;;;;;13.45;2.53;;;5.90;99.90;;;;;;4961625;29;20034;-78
2024/02/02 02:16:10;;;;;;;18.33;3.42;;;6.00;99.90;;;;;;4960029;29;20019;-78
2024/02/02 02:18:36;;;;;;;18.15;2.95;;;5.90;99.90;;;;;;4961689;29;20058;-78
2024/02/02 02:21:25;;;;;;;11.45;2.13;;;6.00;99.90;;;;;;4960220;29;20460;-78
2024/02/02 02:23:51;;;;;;;11.23;2.78;;;6.00;99.90;;;;;;4960772;29;20027;-78
2024/02/02 02:26:20;;;;;;;19.67;3.15;;;6.00;99.90;;;;;;4961100;29;20050;-78
2024/02/02 02:28:46;;;;;;;;;;;8.10;99.90;;;;;;4961755;29;20387;-78
2024/02/02 02:31:16;;;;;;;26.52;3.03;;;6.00;99.90;;;;;;4962156;29;19910;-78
2024/02/02 02:33:43;;;;;;;13.55;2.63;;;6.00;99.90;;;;;;4959538;29;20027;-78
2024/02/02 02:36:12;;;;;;;13.65;2.22;;;6.00;99.90;;;;;;4961761;29;20078;-78
2024/02/02 02:38:38;;;;;;;11.05;3.05;;;5.90;99.90;;;;;;4960276;29;20047;-76
2024/02/02 02:41:03;;;;;;;16.35;2.40;;;6.00;99.90;;;;;;4960542;29;20023;-78
2024/02/02 02:43:30;;;;;;;12.15;3.25;;;6.00;99.90;;;;;;4958940;29;20023;-78
2024/02/02 02:45:56;;;;;;;16.77;2.47;;;5.90;99.90;;;;;;4960023;29;20050;-76
2024/02/02 02:48:22;;;;;;;27.75;3.03;;;5.90;99.90;;;;;;4962086;29;20443;-77
2024/02/02 02:50:48;;;;;;;14.68;2.05;;;5.90;99.90;;;;;;4962280;29;20030;-76
2024/02/02 02:53:14;;;;;;;16.23;3.08;;;5.90;99.90;;;;;;4960498;29;20415;-76
2024/02/02 02:55:40;;;;;;;12.40;2.58;;;5.80;99.90;;;;;;4962193;29;20027;-77
2024/02/02 02:58:06;;;;;;;15.88;2.50;;;5.80;99.90;;;;;;4962576;29;20035;-77
2024/02/02 03:00:33;;;;;;;13.68;2.33;;;5.80;99.90;;;;;;4962372;29;20038;-77
2024/02/02 03:02:59;;;;;;;27.35;3.72;;;5.80;99.90;;;;;;4963069;29;20031;-77
2024/02/02 03:05:28;;;;;;;15.85;1.75;;;5.80;99.90;;;;;;4961807;29;20023;-77
2024/02/02 03:07:55;;;;;;;20.98;3.03;;;5.70;99.90;;;;;;4960830;29;20038;-77
2024/02/02 03:10:25;;;;;;;13.00;2.58;;;5.70;99.90;;;;;;4961509;29;20035;-77
2024/02/02 03:12:52;;;;;;;16.38;2.45;;;5.70;99.90;;;;;;4961302;28;20116;-76
2024/02/02 03:15:18;;;;;;;10.60;1.75;;;5.60;99.90;;;;;;4961850;29;20027;-76
2024/02/02 03:17:47;;;;;;;13.15;2.30;;;5.60;99.90;;;;;;4961734;29;20023;-76
2024/02/02 03:20:13;;;;;;;12.15;1.55;;;5.50;99.90;;;;;;4961148;29;20003;-76
2024/02/02 03:22:39;;;;;;;10.95;2.00;;;5.60;99.90;;;;;;4962264;29;20078;-77
2024/02/02 03:25:06;;;;;;;17.50;2.80;;;5.50;99.90;;;;;;4961564;29;20477;-77
2024/02/02 03:27:32;;;;;;;10.85;1.13;;;5.60;99.90;;;;;;4959543;29;20042;-77
2024/02/02 03:29:58;;;;;;;19.25;1.90;;;5.60;99.90;;;;;;4960750;29;20071;-76
2024/02/02 03:32:24;;;;;;;18.13;1.70;;;5.60;99.90;;;;;;4962595;29;20023;-77
2024/02/02 03:34:50;;;;;;;15.57;1.88;;;5.60;99.90;;;;;;4961604;29;20495;-77
2024/02/02 03:37:15;;;;;;;21.10;2.65;;;5.60;99.90;;;;;;4962512;29;20068;-77
2024/02/02 03:39:41;;;;;;;17.50;2.20;;;5.50;99.90;;;;;;4963325;29;20063;-77
2024/02/02 03:42:07;;;;;;;16.38;1.55;;;5.50;99.90;;;;;;4961245;29;20027;-77
2024/02/02 03:44:33;;;;;;;14.30;1.90;;;5.60;99.90;;;;;;4961356;29;20037;-77
2024/02/02 03:46:58;;;;;;;17.20;2.60;;;5.50;99.90;;;;;;4960894;29;20126;-77
2024/02/02 03:49:24;;;;;;;12.95;1.48;;;5.50;99.90;;;;;;4963293;29;20039;-77
2024/02/02 03:51:50;;;;;;;14.45;1.20;;;5.60;99.90;;;;;;4961042;29;20065;-77
2024/02/02 03:54:15;;;;;;;12.60;1.25;;;5.50;99.90;;;;;;4961284;28;20058;-77
2024/02/02 03:56:42;;;;;;;10.43;1.50;;;5.60;99.90;;;;;;4962105;29;20026;-77
2024/02/02 03:59:09;;;;;;;14.63;2.17;;;5.60;99.90;;;;;;4963256;29;20023;-77
2024/02/02 04:01:35;;;;;;;13.38;1.10;;;5.60;99.90;;;;;;4960515;29;20547;-77
2024/02/02 04:04:01;;;;;;;11.90;1.40;;;5.60;99.90;;;;;;4961415;29;20094;-77
2024/02/02 04:06:28;;;;;;;17.38;1.30;;;5.70;99.90;;;;;;4960483;29;20027;-77
2024/02/02 04:08:53;;;;;;;12.90;1.25;;;5.70;99.90;;;;;;4960817;29;20094;-77
2024/02/02 04:11:20;;;;;;;4.93;1.13;;;5.70;99.90;;;;;;4961726;29;20019;-77
2024/02/02 04:13:46;;;;;;;13.07;0.75;;;5.80;99.90;;;;;;4960811;29;20472;-77
2024/02/02 04:16:11;;;;;;;17.55;1.38;;;5.70;99.90;;;;;;4959884;29;20030;-77
2024/02/02 04:18:37;;;;;;;11.52;1.60;;;5.70;99.90;;;;;;4958944;29;20035;-77
2024/02/02 04:21:03;;;;;;;11.43;1.00;;;5.70;99.90;;;;;;4959082;29;20399;-77
2024/02/02 04:23:29;;;;;;;15.07;1.75;;;5.70;99.90;;;;;;4958181;28;20473;-78
2024/02/02 04:25:54;;;;;;;14.95;1.08;;;5.70;99.90;;;;;;4956385;29;20035;-77
2024/02/02 04:28:20;;;;;;;15.77;1.67;;;5.70;99.90;;;;;;4960951;29;20030;-77
2024/02/02 04:30:46;;;;;;;17.45;2.13;;;5.70;99.90;;;;;;4960477;29;20047;-77
2024/02/02 04:33:12;;;;;;;14.13;0.93;;;5.70;99.90;;;;;;4960660;29;20019;-77
2024/02/02 04:35:38;;;;;;;18.27;1.75;;;5.70;99.90;;;;;;4959777;29;20023;-77
2024/02/02 04:38:04;;;;;;;12.60;1.25;;;5.70;99.90;;;;;;4959447;29;20035;-77
2024/02/02 04:40:30;;;;;;;16.90;1.17;;;5.70;99.90;;;;;;4959910;29;20031;-77
2024/02/02 04:42:57;;;;;;;15.70;1.77;;;5.80;99.90;;;;;;4959671;29;20399;-77
2024/02/02 04:45:23;;;;;;;16.77;1.42;;;5.70;99.90;;;;;;4958765;29;20038;-77
2024/02/02 04:47:49;;;;;;;11.98;0.82;;;5.60;99.90;;;;;;4957309;29;20470;-77
2024/02/02 04:50:15;;;;;;;15.57;0.98;;;5.70;99.90;;;;;;4957407;29;20031;-77
2024/02/02 04:52:41;;;;;;;10.43;0.30;;;5.60;99.90;;;;;;4956246;29;20023;-78
2024/02/02 04:55:07;;;;;;;13.10;1.60;;;5.60;99.90;;;;;;4956903;29;20031;-78
2024/02/02 04:57:33;;;;;;;12.68;2.25;;;5.60;99.90;;;;;;4956732;29;20019;-77
2024/02/02 04:59:59;;;;;;;14.27;1.42;;;5.60;99.90;;;;;;4957000;29;20487;-77
2024/02/02 05:02:25;;;;;;;12.90;1.42;;;5.50;99.90;;;;;;4958842;29;20555;-77
2024/02/02 05:04:51;;;;;;;11.73;0.73;;;5.60;99.90;;;;;;4960597;29;20034;-77
2024/02/02 05:07:17;;;;;;;16.38;0.90;;;5.60;99.90;;;;;;4959092;29;20016;-77
2024/02/02 05:09:42;;;;;;;13.40;1.58;;;5.60;99.90;;;;;;4960989;29;20026;-77
2024/02/02 05:12:08;;;;;;;15.10;1.05;;;5.60;99.90;;;;;;4959388;29;20118;-77
2024/02/02 05:14:34;;;;;;;6.65;0.75;;;5.60;99.90;;;;;;4961000;29;20028;-77
2024/02/02 05:17:01;;;;;;;14.93;1.05;;;5.60;99.90;;;;;;4958948;29;20021;-77
2024/02/02 05:19:27;;;;;;;9.77;0.60;;;5.60;99.90;;;;;;4959033;29;20034;-77
2024/02/02 05:21:53;;;;;;;17.60;0.88;;;5.60;99.90;;;;;;4959498;29;20059;-77
2024/02/02 05:24:18;;;;;;;13.15;1.25;;;5.50;99.90;;;;;;4959961;29;20046;-77
2024/02/02 05:26:44;;;;;;;21.70;1.73;;;5.50;99.90;;;;;;4956966;29;20024;-77
2024/02/02 05:29:10;;;;;;;11.98;0.85;;;5.50;99.90;;;;;;4958714;29;20031;-77
2024/02/02 05:31:35;;;;;;;12.13;0.85;;;5.50;99.90;;;;;;4959105;29;20098;-77
2024/02/02 05:34:01;;;;;;;14.43;0.73;;;5.50;99.90;;;;;;4958553;29;20030;-77
2024/02/02 05:36:27;;;;;;;12.15;0.68;;;5.50;99.90;;;;;;4959767;28;20519;-77
2024/02/02 05:38:53;;;;;;;14.95;1.27;;;5.50;99.90;;;;;;4963701;29;20522;-77
2024/02/02 05:41:18;;;;;;;12.25;0.50;;;5.50;99.90;;;;;;4963303;29;20498;-77
2024/02/02 05:43:44;;;;;;;17.17;0.88;;;5.50;99.90;;;;;;4964928;29;20038;-77
2024/02/02 05:46:10;;;;;;;18.20;0.90;;;5.50;99.90;;;;;;4962401;29;20023;-77
2024/02/02 05:48:36;;;;;;;8.50;0.40;;;5.40;99.90;;;;;;4960951;29;20053;-77
2024/02/02 05:51:01;;;;;;;20.67;1.13;;;5.40;99.90;;;;;;4962736;29;20038;-77
2024/02/02 05:53:27;;;;;;;13.57;1.20;;;5.40;99.90;;;;;;4963722;29;20074;-77
2024/02/02 05:55:53;;;;;;;12.77;1.02;;;5.40;99.90;;;;;;4963417;29;20506;-78
2024/02/02 05:58:18;;;;;;;13.20;0.90;;;5.40;99.90;;;;;;4963130;29;20023;-77
2024/02/02 06:00:45;;;;;;;11.70;0.73;;;5.40;99.90;;;;;;4964506;29;20027;-77
2024/02/02 06:03:10;;;;;;;18.92;1.42;;;5.40;99.90;;;;;;4962269;29;20059;-77
2024/02/02 06:05:36;;;;;;;11.55;0.47;;;5.30;99.90;;;;;;4961700;29;20024;-77
2024/02/02 06:08:02;;;;;;;14.15;1.83;;;5.30;99.90;;;;;;4962350;29;20471;-77
2024/02/02 06:10:28;;;;;;;12.48;1.38;;;5.40;99.90;;;;;;4962075;29;20054;-77
2024/02/02 06:12:54;;;;;;;20.17;1.73;;;5.30;99.90;;;;;;4962080;29;20020;-77
2024/02/02 06:15:20;;;;;;;13.32;0.60;;;5.40;99.90;;;;;;4961818;29;20103;-77
2024/02/02 06:17:46;;;;;;;15.93;2.17;;;5.40;99.90;;;;;;4960111;29;20036;-77
2024/02/02 06:20:12;;;;;;;12.45;2.45;;;5.30;99.90;;;;;;4962018;29;20110;-77
2024/02/02 06:22:38;;;;;;;23.30;2.55;;;5.40;99.90;;;;;;4962166;29;20062;-77
2024/02/02 06:25:05;;;;;;;11.30;1.80;;;5.40;99.90;;;;;;4961686;29;20023;-77
2024/02/02 06:27:30;;;;;;;9.45;0.82;;;5.40;99.90;;;;;;4960223;29;20094;-78
2024/02/02 06:30:03;;;;;;;16.73;1.73;;;5.40;99.90;;;;;;4961544;29;20074;-77
2024/02/02 06:32:29;;;;;;;17.58;1.25;;;5.40;99.90;;;;;;4961146;29;20027;-78
2024/02/02 06:34:55;;;;;;;24.65;2.33;;;5.30;99.90;;;;;;4959695;29;20031;-78
2024/02/02 06:37:23;;;;;;;18.33;1.55;;;5.40;99.90;;;;;;4960528;29;20111;-78
2024/02/02 06:39:52;;;;;;;15.52;2.25;;;5.40;99.90;;;;;;4961071;29;20058;-78
2024/02/02 06:42:18;;;;;;;17.35;1.23;;;5.40;99.90;;;;;;4961648;29;20391;-78
2024/02/02 06:44:44;;;;;;;17.33;2.08;;;5.40;99.90;;;;;;4960029;29;20051;-78
2024/02/02 06:47:09;;;;;;;14.07;1.60;;;5.40;99.90;;;;;;4961662;28;20027;-78
2024/02/02 06:49:35;;;;;;;19.67;2.22;;;5.40;99.90;;;;;;4962079;29;20086;-78
2024/02/02 06:52:02;;;;;;;12.45;1.80;;;5.40;99.90;;;;;;4961819;29;20051;-78
2024/02/02 06:54:27;;;;;;;13.38;1.27;;;5.40;99.90;;;;;;4960856;29;20023;-78
2024/02/02 06:56:53;;;;;;;16.60;2.35;;;5.40;99.90;;;;;;4959629;29;20391;-78
2024/02/02 06:59:19;;;;;;;23.10;3.45;;;5.40;99.90;;;;;;4959348;29;20031;-78
2024/02/02 07:01:45;;;;;;;16.33;2.63;;;5.30;99.90;;;;;;4960374;29;20043;-77
2024/02/02 07:04:14;;;;;;;28.92;2.42;;;5.40;99.90;;;;;;4962282;29;20443;-78
2024/02/02 07:06:41;;;;;;;19.88;2.38;;;5.30;99.90;;;;;;4962879;29;20051;-78
2024/02/02 07:09:26;;;;;;;17.65;1.70;;;5.30;99.90;;;;;;4961104;29;20031;-78
2024/02/02 07:11:52;;;;;;;18.45;2.47;;;5.30;99.90;;;;;;4962906;29;20030;-78
2024/02/02 07:14:47;;;;;;;18.02;2.25;;;5.40;99.90;;;;;;4960697;29;20027;-78
2024/02/02 07:17:36;;;;;;;13.27;2.30;;;5.40;99.90;;;;;;4958243;29;20028;-78
2024/02/02 07:20:19;;;;;;;32.53;3.33;;;5.40;99.90;;;;;;4961494;29;20030;-78
2024/02/02 07:22:44;;;;;;;25.88;3.55;;;5.40;99.90;;;;;;4962393;29;20015;-79
2024/02/02 07:25:17;;;;;;;16.27;2.88;;;5.40;99.90;;;;;;4959963;29;20027;-79
2024/02/02 07:27:51;;;;;;;23.20;2.80;;;5.30;99.90;;;;;;4960872;29;20028;-78
2024/02/02 07:30:47;;;;;;;19.48;4.35;;;5.40;99.90;;;;;;4962195;29;20023;-77
2024/02/02 07:33:24;;;;;;;25.38;2.55;;;5.40;99.90;;;;;;4960710;29;20011;-80
2024/02/02 07:35:50;;;;;;;15.35;2.40;;;5.40;99.90;;;;;;4961209;29;20023;-80
2024/02/02 07:38:38;;;;;;;14.95;2.58;;;5.40;99.90;;;;;;4959633;29;20030;-79
2024/02/02 07:41:08;;;;;;;18.83;2.83;;;5.40;99.90;;;;;;4963325;28;20038;-79
2024/02/02 07:43:34;;;;;;;21.35;2.53;;;5.50;99.90;;;;;;4961792;29;20535;-79
2024/02/02 07:46:01;;;;;;;20.00;2.03;;;5.50;99.90;;;;;;4961037;29;20393;-79
2024/02/02 07:48:27;;;;;;;26.40;4.70;;;5.50;99.90;;;;;;4964015;29;20031;-81
2024/02/02 07:50:53;;;;;;;21.42;2.17;;;5.50;99.90;;;;;;4966295;29;20032;-80
2024/02/02 07:53:18;;;;;;;30.42;4.00;;;5.60;99.90;;;;;;4961433;29;20023;-80
2024/02/02 07:55:44;;;;;;;17.48;1.63;;;5.60;99.90;;;;;;4962619;29;20051;-80
2024/02/02 07:58:10;;;;;;;9.05;1.98;;;5.60;99.90;;;;;;4964285;28;20031;-80
2024/02/02 08:00:36;;;;;;;22.10;2.80;;;;;;;;;;4962164;29;20039;-80
2024/02/02 08:03:03;;;;;;;18.77;1.80;;;;;;;;;;4961631;29;20126;-80
2024/02/02 08:05:28;;;;;;;19.10;3.20;;;5.70;99.90;;;;;;4962855;28;20034;-80
2024/02/02 08:07:54;;;;;;;24.40;2.25;;;5.70;99.90;;;;;;4963705;29;20102;-80
2024/02/02 08:10:22;;;;;;;15.48;2.05;;;5.70;99.90;;;;;;4962260;29;20027;-80
2024/02/02 08:12:47;;;;;;;27.00;1.73;;;5.80;99.90;;;;;;4964185;29;20058;-80
2024/02/02 08:15:14;;;;;;;17.10;1.15;;;5.80;99.90;;;;;;4962443;29;20043;-80
2024/02/02 08:17:39;;;;;;;20.17;2.05;;;5.80;99.90;;;;;;4962437;29;20500;-79
2024/02/02 08:20:06;;;;;;;22.95;2.15;;;5.90;99.90;;;;;;4960667;29;20034;-80
2024/02/02 08:22:31;;;;;;;28.20;2.85;;;5.90;99.90;;;;;;4960400;29;20554;-80
2024/02/02 08:24:57;;;;;;;19.27;2.55;;;6.00;99.90;;;;;;4961115;29;20054;-80
2024/02/02 08:27:23;;;;;;;23.45;1.88;;;6.10;99.90;;;;;;4960403;29;20016;-79
2024/02/02 08:29:51;;;;;;;16.40;2.05;;;6.10;99.90;;;;;;4960782;29;20059;-80
2024/02/02 08:32:18;;;;;;;20.05;0.98;;;6.20;99.90;;;;;;4959808;29;20020;-80
2024/02/02 08:34:43;;;;;;;20.00;1.90;;;6.20;99.90;;;;;;4958632;29;20078;-80
2024/02/02 08:37:09;;;;;;;13.43;1.83;;;6.20;99.90;;;;;;4959178;29;20051;-79
2024/02/02 08:39:35;;;;;;;13.88;0.90;;;6.20;99.90;;;;;;4958920;29;20027;-80
2024/02/02 08:42:32;;;;;;;22.98;2.58;;;6.20;99.90;;;;;;4961722;29;20086;-79
2024/02/02 08:45:00;;;;;;;20.80;1.90;;;6.30;99.90;;;;;;4960462;29;20030;-80
2024/02/02 08:47:34;;;;;;;18.60;1.08;;;6.30;99.90;;;;;;4959036;29;20031;-80
2024/02/02 08:50:04;;;;;;;14.50;1.50;;;6.40;99.90;;;;;;4959782;29;20023;-80
2024/02/02 08:52:33;;;;;;;20.23;1.17;;;6.50;99.90;;;;;;4959646;29;20102;-80
2024/02/02 08:55:03;;;;;;;19.25;2.05;;;;;;;;;;4961057;29;20100;-80
2024/02/02 08:58:08;;;;;;;12.20;1.02;;;6.60;99.90;;;;;;4960279;28;20028;-79
2024/02/02 09:00:39;;;;;;;18.42;2.17;;;6.60;99.90;;;;;;4957338;29;20403;-79
2024/02/02 09:03:33;;;;;;;18.98;2.33;;;6.60;99.90;;;;;;4959223;29;20039;-79
2024/02/02 09:06:07;;;;;;;21.20;2.35;;;6.70;99.90;;;;;;4960136;29;20034;-79
2024/02/02 09:08:40;;;;;;;18.65;1.65;;;6.80;99.90;;;;;;4959255;29;20027;-79
2024/02/02 09:11:12;;;;;;;20.83;2.50;;;6.80;99.90;;;;;;4957203;29;20015;-78
2024/02/02 09:13:40;;;;;;;27.33;2.92;;;6.80;99.90;;;;;;4959536;29;20035;-79
2024/02/02 09:16:09;;;;;;;22.65;3.42;;;6.90;99.90;;;;;;4959377;29;20472;-79
2024/02/02 09:18:38;;;;;;;13.70;1.20;;;6.90;99.90;;;;;;4960214;29;20060;-79
2024/02/02 09:21:04;;;;;;;22.98;2.53;;;7.00;99.90;;;;;;4961600;29;20495;-80
2024/02/02 09:23:35;;;;;;;19.95;2.80;;;7.00;99.90;;;;;;4961172;29;20075;-80
2024/02/02 09:26:09;;;;;;;17.08;2.22;;;7.00;99.90;;;;;;4960768;29;20077;-80
2024/02/02 09:28:37;;;;;;;35.05;2.50;;;7.10;99.90;;;;;;4960146;29;20027;-79
2024/02/02 09:31:05;;;;;;;16.00;2.57;;;7.20;99.90;;;;;;4960863;29;20031;-80
2024/02/02 09:33:31;;;;;;;20.85;2.38;;;7.20;99.90;;;;;;4960044;29;20043;-79
2024/02/02 09:36:05;;;;;;;21.90;3.08;;;7.20;99.90;;;;;;4959046;29;20029;-80
2024/02/02 09:38:32;;;;;;;17.95;2.22;;;7.20;99.90;;;;;;4962480;29;20023;-80
2024/02/02 09:41:00;;;;;;;29.77;4.25;;;7.30;99.90;;;;;;4959070;29;20027;-80
2024/02/02 09:43:54;;;;;;;20.08;2.35;;;7.40;99.90;;;;;;4959925;29;20534;-80
2024/02/02 09:46:24;;;;;;;25.05;4.05;;;7.40;99.90;;;;;;4958233;29;20042;-79
2024/02/02 09:49:23;;;;;;;20.45;3.65;;;7.50;99.90;;;;;;4958375;29;20034;-81
2024/02/02 09:52:13;;;;;;;27.27;2.97;;;7.60;99.90;;;;;;4958449;29;20410;-79
2024/02/02 09:55:03;;;;;;;26.35;3.67;;;7.60;99.90;;;;;;4959717;29;20054;-79
2024/02/02 09:57:45;;;;;;;21.75;3.35;;;7.60;99.90;;;;;;4959262;29;20031;-80
2024/02/02 10:00:15;;;;;;;25.30;2.78;;;7.60;99.90;;;;;;4959772;29;20058;-80
2024/02/02 10:03:01;;;;;;;21.23;4.43;;;7.80;99.90;;;;;;4959152;29;20027;-79
2024/02/02 10:05:46;;;;;;;24.02;4.32;;;7.80;99.90;;;;;;4959450;29;20035;-80
2024/02/02 10:08:34;;;;;;;25.90;4.60;;;7.80;99.90;;;;;;4960583;29;20388;-80
2024/02/02 10:11:27;;;;;;;24.70;4.65;;;7.90;99.90;;;;;;4958334;29;20114;-80
2024/02/02 10:14:28;;;;;;;27.80;4.20;;;7.90;99.90;;;;;;4947750;29;20518;-80
2024/02/02 10:17:28;;;;;;;26.25;4.45;;;8.00;99.90;;;;;;4959145;29;20055;-79
2024/02/02 10:20:09;;;;;;;19.35;3.38;;;8.00;99.90;;;;;;4947706;28;20036;-80
2024/02/02 10:22:38;;;;;;;25.48;3.05;;;8.00;99.90;;;;;;4960394;28;20023;-80
2024/02/02 10:25:34;;;;;;;21.65;5.15;;;8.00;99.90;;;;;;4963101;29;20055;-80
2024/02/02 10:28:06;;;;;;;18.92;3.53;;;8.20;99.90;;;;;;4964323;29;20031;-80
2024/02/02 10:30:49;;;;;;;26.42;4.88;;;8.30;99.90;;;;;;4964577;29;20377;-80
2024/02/02 10:33:36;;;;;;;20.83;3.25;;;8.30;99.90;;;;;;4964015;29;20431;-79
2024/02/02 10:36:14;;;;;;;25.23;4.03;;;8.40;99.90;;;;;;4963599;29;20376;-80
2024/02/02 10:38:49;;;;;;;25.02;4.70;;;8.30;99.90;;;;;;4965957;29;20395;-80
2024/02/02 10:41:26;;;;;;;21.80;3.70;;;8.50;99.90;;;;;;4963076;29;20474;-80
2024/02/02 10:44:39;;;;;;;30.30;5.47;;;8.40;99.90;;;;;;4963831;29;20078;-80
2024/02/02 10:47:32;;;;;;;15.05;2.22;;;8.60;99.90;;;;;;4947179;28;20047;-80
2024/02/02 10:50:16;;;;;;;21.35;3.47;;;8.50;99.90;;;;;;4964181;29;20035;-80
2024/02/02 10:53:07;;;;;;;23.08;4.13;;;8.60;99.90;;;;;;4963918;29;20034;-80
2024/02/02 10:55:33;;;;;;;34.40;5.60;;;;;;;;;;4963202;29;20075;-79
2024/02/02 10:58:22;;;;;;;19.45;3.67;;;8.70;99.90;;;;;;4964461;28;20047;-81
2024/02/02 11:00:59;;;;;;;22.70;3.38;;;8.70;99.90;;;;;;4960522;29;20399;-79
2024/02/02 11:03:36;;;;;;;30.23;4.07;;;8.80;99.90;;;;;;4960211;29;20403;-79
2024/02/02 11:06:24;;;;;;;19.55;4.63;;;8.80;99.90;;;;;;4959194;29;20378;-79
2024/02/02 11:09:01;;;;;;;22.35;3.47;;;8.80;99.90;;;;;;4958881;29;20529;-79
2024/02/02 11:11:30;;;;;;;24.90;4.43;;;8.80;99.90;;;;;;4959492;29;20030;-79
2024/02/02 11:14:14;;;;;;;26.08;4.97;;;8.80;99.90;;;;;;4960517;29;20042;-79
2024/02/02 11:17:30;;;;;;;23.63;4.55;;;8.90;99.90;;;;;;4960310;29;20030;-79
2024/02/02 11:20:20;;;;;;;25.98;4.32;;;8.90;99.90;;;;;;4903387;29;20036;-79
2024/02/02 11:23:08;;;;;;;24.13;5.82;;;8.80;99.90;;;;;;4904322;29;20468;-80
2024/02/02 11:25:47;;;;;;;25.42;4.65;;;8.90;99.90;;;;;;4951041;29;20039;-81
2024/02/02 11:28:28;;;;;;;18.00;3.80;;;8.90;99.90;;;;;;4959462;29;20033;-80
2024/02/02 11:31:29;;;;;;;25.88;4.10;;;8.90;99.90;;;;;;4961424;29;20098;-79
2024/02/02 11:34:06;;;;;;;24.58;3.70;;;8.90;99.90;;;;;;4959899;28;20031;-79
2024/02/02 11:37:17;;;;;;;21.20;4.78;;;8.80;99.90;;;;;;4959140;29;20479;-80
2024/02/02 11:39:53;;;;;;;27.30;4.97;;;8.80;99.90;;;;;;4960509;29;20035;-81
2024/02/02 11:42:21;;;;;;;25.35;3.50;;;8.80;99.90;;;;;;4957547;29;20063;-78
2024/02/02 11:44:48;;;;;;;29.00;5.05;;;8.80;99.90;;;;;;4956686;29;20027;-78
2024/02/02 11:47:18;;;;;;;13.15;3.55;;;8.80;99.90;;;;;;4958572;29;20027;-78
2024/02/02 11:49:48;;;;;;;19.88;4.95;;;8.80;99.90;;;;;;4957843;29;20506;-79
2024/02/02 11:52:22;;;;;;;20.67;3.70;;;8.80;99.90;;;;;;4957862;29;20096;-79
2024/02/02 11:55:07;;;;;;;20.63;3.78;;;8.90;99.90;;;;;;4957123;29;20027;-78
2024/02/02 11:57:38;;;;;;;29.52;4.47;;;8.80;99.90;;;;;;4956217;29;20436;-78
2024/02/02 12:00:12;;;;;;;32.60;5.18;;;8.90;99.90;;;;;;4957514;29;20027;-79
2024/02/02 12:02:56;;;;;;;32.05;5.05;;;8.90;99.90;;;;;;4959870;28;20510;-80
2024/02/02 12:05:27;;;;;;;21.38;4.20;;;8.90;99.90;;;;;;4957993;29;20135;-80
2024/02/02 12:08:02;;;;;;;16.35;3.83;;;8.80;99.90;;;;;;4958537;29;20054;-80
2024/02/02 12:10:32;;;;;;;24.45;3.72;;;8.80;99.90;;;;;;4958069;29;20028;-79
2024/02/02 12:13:09;;;;;;;21.80;3.55;;;8.80;99.90;;;;;;4957848;29;20511;-78
2024/02/02 12:15:35;;;;;;;25.95;4.57;;;8.90;99.90;;;;;;4957104;29;20491;-79
2024/02/02 12:18:02;;;;;;;25.20;5.90;;;8.90;99.90;;;;;;4956968;29;20059;-79
2024/02/02 12:20:29;;;;;;;24.17;5.30;;;8.90;99.90;;;;;;4957634;29;20011;-79
2024/02/02 12:22:55;;;;;;;22.58;5.38;;;8.90;99.90;;;;;;4958771;29;20019;-79
2024/02/02 12:25:27;;;;;;;13.90;4.57;;;8.90;99.90;;;;;;4960130;29;20031;-79
2024/02/02 12:27:54;;;;;;;21.10;4.93;;;9.00;99.90;;;;;;4960076;29;20027;-80
2024/02/02 12:30:20;;;;;;;19.88;4.20;;;9.00;99.90;;;;;;4958002;29;20030;-79
2024/02/02 12:32:56;;;;;;;21.23;6.63;;;9.10;99.90;;;;;;4959174;29;20399;-79
2024/02/02 12:35:25;;;;;;;13.18;4.47;;;9.10;99.90;;;;;;4959748;29;20030;-79
2024/02/02 12:37:52;;;;;;;20.08;4.22;;;9.10;99.90;;;;;;4959501;29;20488;-79
2024/02/02 12:40:19;;;;;;;22.42;4.63;;;9.10;99.90;;;;;;4958521;29;20023;-79
2024/02/02 12:42:50;;;;;;;15.38;4.13;;;9.20;99.90;;;;;;4957578;29;20435;-79
2024/02/02 12:45:17;;;;;;;28.27;4.32;;;9.10;99.90;;;;;;4956524;28;20030;-79
2024/02/02 12:47:49;;;;;;;19.08;5.05;;;9.20;99.90;;;;;;4957127;29;20019;-78
2024/02/02 12:50:17;;;;;;;17.92;3.90;;;9.20;99.90;;;;;;4955492;29;20039;-79
2024/02/02 12:52:45;;;;;;;29.98;5.93;;;9.20;99.90;;;;;;4957235;29;20020;-79
2024/02/02 12:55:12;;;;;;;18.95;4.22;;;9.20;99.90;;;;;;4955787;29;20479;-78
2024/02/02 12:57:38;;;;;;;22.33;5.25;;;9.30;99.90;;;;;;4956504;29;20531;-80
2024/02/02 13:00:05;;;;;;;24.75;4.25;;;9.30;99.90;;;;;;4958369;29;20058;-79
2024/02/02 13:02:31;;;;;;;16.35;4.80;;;9.30;99.90;;;;;;4958096;29;20031;-80
2024/02/02 13:04:57;;;;;;;15.02;3.42;;;9.30;99.90;;;;;;4957064;29;20023;-79